createdAt,value
2023-06-17T00:00:34.001Z,99994.92
2023-06-17T00:03:22.918Z,99989.39
2023-06-17T00:05:52.829Z,99987.65
2023-06-17T00:08:21.583Z,99982.69
2023-06-17T00:10:49.877Z,99976.89
2023-06-17T00:13:21.057Z,99972.91
2023-06-17T00:15:54.864Z,99973.71
2023-06-17T00:18:23.653Z,99972.58
2023-06-17T00:20:54.161Z,99968.95
2023-06-17T00:23:23.147Z,99971.49
2023-06-17T00:25:51.652Z,99967.14
2023-06-17T00:28:19.932Z,99967.91
2023-06-17T00:30:48.751Z,99963.92
2023-06-17T00:33:17.225Z,99960.81
2023-06-17T00:35:45.596Z,99956.66
2023-06-17T00:38:13.925Z,99956.57
2023-06-17T00:40:42.274Z,99954.87
2023-06-17T00:43:10.636Z,99952.80
2023-06-17T00:45:40.716Z,99958.27
2023-06-17T00:48:11.533Z,99956.84
2023-06-17T00:50:40.316Z,99956.67
2023-06-17T00:53:08.641Z,99955.11
2023-06-17T00:55:37.216Z,99956.75
2023-06-17T00:58:05.656Z,99954.51
2023-06-17T01:00:33.979Z,99953.34
2023-06-17T01:03:02.412Z,99953.86
2023-06-17T01:05:30.998Z,99950.41
2023-06-17T01:08:04.151Z,99951.05
2023-06-17T01:10:42.308Z,99950.83
2023-06-17T01:13:14.013Z,99953.37
2023-06-17T01:15:43.205Z,99959.21
2023-06-17T01:18:12.716Z,99954.13
2023-06-17T01:20:41.791Z,99954.17
2023-06-17T01:23:12.573Z,99955.66
2023-06-17T01:25:41.062Z,99950.80
2023-06-17T01:28:18.939Z,99955.23
2023-06-17T01:30:58.111Z,99955.29
2023-06-17T01:33:27.244Z,99958.81
2023-06-17T01:36:13.891Z,99958.85
2023-06-17T01:38:49.554Z,99955.74
2023-06-17T01:41:19.580Z,99958.98
2023-06-17T01:43:50.535Z,99956.47
2023-06-17T01:46:19.838Z,99961.16
2023-06-17T01:48:48.257Z,99956.86
2023-06-17T01:51:16.536Z,99959.04
2023-06-17T01:53:45.165Z,99961.37
2023-06-17T01:56:13.955Z,99963.15
2023-06-17T01:58:42.270Z,99969.00
2023-06-17T02:01:10.641Z,99972.32
2023-06-17T02:03:40.587Z,99979.30
2023-06-17T02:06:09.347Z,99978.38
2023-06-17T02:08:38.564Z,99979.77
2023-06-17T02:11:06.981Z,99985.42
2023-06-17T02:13:35.204Z,99980.17
2023-06-17T02:16:04.365Z,99978.10
2023-06-17T02:18:33.697Z,99981.33
2023-06-17T02:21:02.681Z,99979.61
2023-06-17T02:23:31.315Z,99976.30
2023-06-17T02:25:59.622Z,99971.72
2023-06-17T02:28:27.980Z,99971.05
2023-06-17T02:30:56.402Z,99968.95
2023-06-17T02:33:24.817Z,99974.06
2023-06-17T02:35:53.166Z,99976.90
2023-06-17T02:38:21.789Z,99975.54
2023-06-17T02:40:50.092Z,99976.77
2023-06-17T02:43:18.401Z,99974.84
2023-06-17T02:45:46.749Z,99981.30
2023-06-17T02:48:15.081Z,99982.87
2023-06-17T02:50:43.332Z,99976.92
2023-06-17T02:53:11.884Z,99981.31
2023-06-17T02:55:40.234Z,99978.85
2023-06-17T02:58:08.597Z,99984.48
2023-06-17T03:00:37.612Z,99983.06
2023-06-17T03:03:06.357Z,99983.58
2023-06-17T03:05:34.735Z,99984.10
2023-06-17T03:08:03.884Z,99986.94
2023-06-17T03:10:32.356Z,99985.73
2023-06-17T03:13:01.945Z,99985.75
2023-06-17T03:15:30.383Z,99989.98
2023-06-17T03:17:58.788Z,99991.20
2023-06-17T03:20:29.939Z,99992.08
2023-06-17T03:22:58.484Z,99996.66
2023-06-17T03:25:26.735Z,99990.71
2023-06-17T03:27:55.046Z,99989.52
2023-06-17T03:30:25.255Z,99988.30
2023-06-17T03:32:54.617Z,99982.67
2023-06-17T03:35:22.937Z,99977.05
2023-06-17T03:37:51.593Z,99976.88
2023-06-17T03:40:20.263Z,99978.63
2023-06-17T03:42:48.768Z,99982.48
2023-06-17T03:45:17.200Z,99981.78
2023-06-17T03:47:45.546Z,99984.92
2023-06-17T03:50:13.963Z,99980.48
2023-06-17T03:52:42.439Z,99980.23
2023-06-17T03:55:10.820Z,99981.27
2023-06-17T03:57:39.331Z,99976.86
2023-06-17T04:00:08.571Z,99978.05
2023-06-17T04:02:37.294Z,99981.83
2023-06-17T04:05:07.439Z,99981.91
2023-06-17T04:07:35.857Z,99983.08
2023-06-17T04:10:07.581Z,99994.44
2023-06-17T04:12:42.498Z,99990.88
2023-06-17T04:15:10.902Z,99989.77
2023-06-17T04:17:39.272Z,99987.10
2023-06-17T04:20:14.476Z,99988.29
2023-06-17T04:22:44.045Z,99991.52
2023-06-17T04:25:14.111Z,99989.08
2023-06-17T04:27:42.481Z,99986.45
2023-06-17T04:30:11.510Z,99986.08
2023-06-17T04:32:40.421Z,99986.97
2023-06-17T04:35:10.421Z,99981.73
2023-06-17T04:37:38.846Z,99980.41
2023-06-17T04:40:13.486Z,99980.08
2023-06-17T04:42:46.275Z,99978.41
2023-06-17T04:45:14.830Z,99976.29
2023-06-17T04:47:43.572Z,99977.67
2023-06-17T04:50:13.954Z,99978.69
2023-06-17T04:52:44.088Z,99978.48
2023-06-17T04:55:15.248Z,99978.55
2023-06-17T04:57:43.815Z,99978.34
2023-06-17T05:00:13.878Z,99980.39
2023-06-17T05:02:42.382Z,99975.36
2023-06-17T05:05:10.681Z,99978.43
2023-06-17T05:07:38.980Z,99976.45
2023-06-17T05:10:07.859Z,99981.25
2023-06-17T05:12:36.211Z,99977.02
2023-06-17T05:15:04.912Z,99977.52
2023-06-17T05:17:33.266Z,99974.10
2023-06-17T05:20:02.025Z,99968.44
2023-06-17T05:22:30.356Z,99963.68
2023-06-17T05:24:58.771Z,99963.30
2023-06-17T05:27:27.078Z,99961.98
2023-06-17T05:29:55.479Z,99968.80
2023-06-17T05:32:26.432Z,99970.17
2023-06-17T05:34:54.863Z,99967.59
2023-06-17T05:37:23.320Z,99968.13
2023-06-17T05:39:51.604Z,99968.66
2023-06-17T05:42:19.966Z,99965.02
2023-06-17T05:44:48.329Z,99964.87
2023-06-17T05:47:16.650Z,99965.44
2023-06-17T05:49:45.031Z,99964.10
2023-06-17T05:52:13.439Z,99966.63
2023-06-17T05:54:41.785Z,99971.58
2023-06-17T05:57:10.069Z,99980.09
2023-06-17T05:59:38.443Z,99978.36
2023-06-17T06:02:06.884Z,99980.23
2023-06-17T06:04:35.224Z,99983.64
2023-06-17T06:07:03.726Z,99984.05
2023-06-17T06:09:32.145Z,99984.02
2023-06-17T06:12:00.365Z,99986.59
2023-06-17T06:14:28.784Z,99981.77
2023-06-17T06:16:57.105Z,99986.14
2023-06-17T06:19:28.314Z,99993.88
2023-06-17T06:21:56.697Z,99995.60
2023-06-17T06:24:25.022Z,99998.90
2023-06-17T06:26:53.346Z,99999.63
2023-06-17T06:29:22.107Z,100000.48
2023-06-17T06:31:50.448Z,100003.64
2023-06-17T06:34:19.260Z,100006.48
2023-06-17T06:36:47.600Z,100013.05
2023-06-17T06:39:16.662Z,100018.39
2023-06-17T06:41:44.931Z,100026.71
2023-06-17T06:44:13.488Z,100034.77
2023-06-17T06:46:41.909Z,100039.63
2023-06-17T06:49:10.270Z,100048.58
2023-06-17T06:51:38.637Z,100044.67
2023-06-17T06:54:07.004Z,100043.04
2023-06-17T06:56:35.258Z,100042.25
2023-06-17T06:59:03.884Z,100036.20
2023-06-17T07:01:32.211Z,100036.63
2023-06-17T07:04:01.115Z,100043.89
2023-06-17T07:06:29.469Z,100043.35
2023-06-17T07:08:57.781Z,100043.50
2023-06-17T07:11:28.378Z,100045.52
2023-06-17T07:13:56.664Z,100042.16
2023-06-17T07:16:25.003Z,100039.18
2023-06-17T07:18:53.333Z,100039.17
2023-06-17T07:21:22.062Z,100036.70
2023-06-17T07:23:51.992Z,100039.58
2023-06-17T07:26:20.296Z,100038.20
2023-06-17T07:28:48.657Z,100038.98
2023-06-17T07:31:17.204Z,100040.11
2023-06-17T07:33:45.587Z,100039.86
2023-06-17T07:36:14.029Z,100041.16
2023-06-17T07:38:42.471Z,100052.58
2023-06-17T07:41:11.338Z,100044.71
2023-06-17T07:43:39.921Z,100042.05
2023-06-17T07:46:08.635Z,100041.20
2023-06-17T07:48:37.159Z,100033.40
2023-06-17T07:51:05.450Z,100031.65
2023-06-17T07:53:34.206Z,100029.47
2023-06-17T07:56:02.841Z,100035.73
2023-06-17T07:58:31.373Z,100044.00
2023-06-17T08:00:59.769Z,100046.23
2023-06-17T08:03:28.926Z,100054.02
2023-06-17T08:05:58.450Z,100058.04
2023-06-17T08:08:26.807Z,100064.76
2023-06-17T08:10:55.156Z,100061.17
2023-06-17T08:13:23.475Z,100065.70
2023-06-17T08:15:53.024Z,100071.61
2023-06-17T08:18:21.941Z,100072.54
2023-06-17T08:20:50.361Z,100077.58
2023-06-17T08:23:18.582Z,100077.41
2023-06-17T08:25:48.090Z,100075.27
2023-06-17T08:28:16.486Z,100075.10
2023-06-17T08:30:53.383Z,100082.64
2023-06-17T08:33:26.439Z,100089.27
2023-06-17T08:36:51.023Z,100089.17
2023-06-17T08:39:38.236Z,100087.18
2023-06-17T08:42:11.165Z,100085.60
2023-06-17T08:44:54.809Z,100085.75
2023-06-17T08:47:34.715Z,100087.16
2023-06-17T08:50:20.570Z,100079.64
2023-06-17T08:52:55.357Z,100074.30
2023-06-17T08:55:33.803Z,100086.23
2023-06-17T08:58:19.044Z,100082.91
2023-06-17T09:04:44.156Z,100081.25
2023-06-17T09:07:18.180Z,100082.98
2023-06-17T09:09:55.832Z,100076.60
2023-06-17T09:13:01.624Z,100076.09
2023-06-17T09:16:00.033Z,100069.54
2023-06-17T09:18:38.744Z,100075.27
2023-06-17T09:21:42.664Z,100080.59
2023-06-17T09:30:45.374Z,100058.70
2023-06-17T09:33:28.474Z,100057.45
2023-06-17T09:36:12.195Z,100050.52
2023-06-17T09:38:56.125Z,100041.59
2023-06-17T09:41:31.676Z,100038.65
2023-06-17T09:44:34.173Z,100036.08
2023-06-17T09:47:40.542Z,100027.65
2023-06-17T09:50:45.757Z,100023.48
2023-06-17T09:53:18.709Z,100019.48
2023-06-17T09:56:02.175Z,100016.36
2023-06-17T09:58:42.754Z,100004.89
2023-06-17T10:01:28.337Z,100004.52
2023-06-17T10:04:11.789Z,100009.07
2023-06-17T10:06:51.481Z,100011.29
2023-06-17T10:09:20.552Z,100018.41
2023-06-17T10:11:54.545Z,100022.36
2023-06-17T10:14:29.248Z,100024.70
2023-06-17T10:16:58.963Z,100020.04
2023-06-17T10:19:28.949Z,100019.13
2023-06-17T10:22:05.864Z,100017.98
2023-06-17T10:24:40.128Z,100010.18
2023-06-17T10:27:14.061Z,100005.91
2023-06-17T10:30:00.040Z,100005.45
2023-06-17T10:32:28.881Z,100007.08
2023-06-17T10:35:07.021Z,100013.33
2023-06-17T10:37:43.384Z,100007.14
2023-06-17T10:40:37.704Z,100012.90
2023-06-17T10:43:11.534Z,100012.11
2023-06-17T10:46:14.098Z,100012.79
2023-06-17T10:48:43.475Z,100015.85
2023-06-17T10:51:12.856Z,100020.40
2023-06-17T10:53:48.310Z,100017.41
2023-06-17T10:56:28.251Z,100022.75
2023-06-17T10:59:01.161Z,100023.44
2023-06-17T11:01:58.526Z,100015.71
2023-06-17T11:04:44.164Z,100012.91
2023-06-17T11:07:47.258Z,100013.86
2023-06-17T11:10:25.882Z,100004.59
2023-06-17T11:13:24.641Z,100005.20
2023-06-17T11:16:03.307Z,99999.90
2023-06-17T11:18:31.957Z,99996.05
2023-06-17T11:21:19.896Z,99987.23
2023-06-17T11:23:48.355Z,99984.07
2023-06-17T11:26:22.070Z,99983.59
2023-06-17T11:28:53.551Z,99978.90
2023-06-17T11:31:26.929Z,99978.89
2023-06-17T11:34:01.973Z,99980.36
2023-06-17T11:36:31.858Z,99983.95
2023-06-17T11:39:00.939Z,99982.94
2023-06-17T11:41:30.101Z,99978.84
2023-06-17T11:43:59.482Z,99977.00
2023-06-17T11:46:28.388Z,99972.73
2023-06-17T11:48:57.518Z,99964.21
2023-06-17T11:51:25.918Z,99965.25
2023-06-17T11:53:54.273Z,99961.21
2023-06-17T11:56:24.034Z,99954.52
2023-06-17T11:58:54.022Z,99958.27
2023-06-17T12:01:26.249Z,99955.40
2023-06-17T12:03:57.339Z,99958.09
2023-06-17T12:06:27.907Z,99961.58
2023-06-17T12:09:01.919Z,99965.71
2023-06-17T12:11:32.985Z,99969.74
2023-06-17T12:14:02.128Z,99977.88
2023-06-17T12:16:32.460Z,99978.63
2023-06-17T12:19:07.457Z,99984.05
2023-06-17T12:21:37.522Z,99980.39
2023-06-17T12:24:06.069Z,99985.98
2023-06-17T12:26:34.393Z,99985.34
2023-06-17T12:29:08.518Z,99990.77
2023-06-17T12:31:44.599Z,99989.10
2023-06-17T12:34:12.984Z,99990.29
2023-06-17T12:36:41.399Z,99991.69
2023-06-17T12:39:09.992Z,99992.59
2023-06-17T12:41:38.471Z,99993.83
2023-06-17T12:44:06.815Z,99991.20
2023-06-17T12:46:36.966Z,99991.83
2023-06-17T12:49:06.915Z,99994.38
2023-06-17T12:51:35.658Z,99996.38
2023-06-17T12:54:04.537Z,99993.23
2023-06-17T12:56:33.321Z,99995.83
2023-06-17T12:59:02.412Z,99999.41
2023-06-17T13:01:30.757Z,100000.70
2023-06-17T13:03:59.412Z,99997.86
2023-06-17T13:06:27.819Z,100000.73
2023-06-17T13:08:58.817Z,100002.57
2023-06-17T13:11:27.460Z,100003.24
2023-06-17T13:13:55.775Z,99998.85
2023-06-17T13:16:24.196Z,99993.83
2023-06-17T13:18:52.706Z,99989.43
2023-06-17T13:21:21.012Z,99987.92
2023-06-17T13:23:49.759Z,99987.27
2023-06-17T13:26:21.499Z,99987.95
2023-06-17T13:28:49.842Z,99986.29
2023-06-17T13:31:18.186Z,99979.11
2023-06-17T13:33:46.993Z,99983.74
2023-06-17T13:36:15.555Z,99981.98
2023-06-17T13:38:43.984Z,99981.21
2023-06-17T13:41:12.412Z,99982.09
2023-06-17T13:43:40.971Z,99974.12
2023-06-17T13:46:10.083Z,99974.27
2023-06-17T13:48:38.475Z,99974.39
2023-06-17T13:51:06.903Z,99971.95
2023-06-17T13:53:35.374Z,99971.59
2023-06-17T13:56:03.795Z,99969.21
2023-06-17T13:58:32.168Z,99971.95
2023-06-17T14:01:00.696Z,99975.25
2023-06-17T14:03:29.278Z,99970.88
2023-06-17T14:05:57.654Z,99970.05
2023-06-17T14:08:26.812Z,99966.58
2023-06-17T14:10:59.139Z,99968.65
2023-06-17T14:13:27.633Z,99969.98
2023-06-17T14:15:56.488Z,99975.23
2023-06-17T14:18:25.761Z,99978.39
2023-06-17T14:20:54.150Z,99972.82
2023-06-17T14:23:22.424Z,99972.83
2023-06-17T14:25:50.735Z,99970.74
2023-06-17T14:28:19.908Z,99971.97
2023-06-17T14:30:53.350Z,99972.17
2023-06-17T14:33:21.747Z,99972.13
2023-06-17T14:35:50.026Z,99964.36
2023-06-17T14:38:18.543Z,99962.48
2023-06-17T14:40:47.153Z,99963.84
2023-06-17T14:43:15.459Z,99955.51
2023-06-17T14:45:43.764Z,99955.55
2023-06-17T14:48:12.326Z,99957.66
2023-06-17T14:50:41.185Z,99955.84
2023-06-17T14:53:10.164Z,99964.04
2023-06-17T14:55:38.788Z,99964.66
2023-06-17T14:58:07.272Z,99969.24
2023-06-17T15:00:35.760Z,99974.73
2023-06-17T15:03:11.031Z,99977.56
2023-06-17T15:05:39.981Z,99977.90
2023-06-17T15:08:10.166Z,99968.59
2023-06-17T15:10:38.960Z,99965.39
2023-06-17T15:13:07.536Z,99960.36
2023-06-17T15:15:36.606Z,99957.77
2023-06-17T15:18:05.141Z,99957.85
2023-06-17T15:20:33.490Z,99956.17
2023-06-17T15:23:02.018Z,99957.94
2023-06-17T15:25:30.292Z,99963.27
2023-06-17T15:27:58.935Z,99961.20
2023-06-17T15:30:27.448Z,99958.20
2023-06-17T15:32:55.916Z,99956.51
2023-06-17T15:35:25.066Z,99956.77
2023-06-17T15:37:53.465Z,99957.92
2023-06-17T15:40:23.646Z,99965.09
2023-06-17T15:42:52.331Z,99969.07
2023-06-17T15:45:20.804Z,99975.34
2023-06-17T15:47:49.175Z,99978.30
2023-06-17T15:50:17.613Z,99983.97
2023-06-17T15:52:46.219Z,99983.38
2023-06-17T15:55:14.813Z,99977.00
2023-06-17T15:57:43.054Z,99970.46
2023-06-17T16:00:12.147Z,99969.45
2023-06-17T16:02:40.537Z,99964.00
2023-06-17T16:05:09.603Z,99969.05
2023-06-17T16:07:38.019Z,99968.02
2023-06-17T16:10:06.738Z,99973.62
2023-06-17T16:12:36.624Z,99971.39
2023-06-17T16:15:06.915Z,99968.20
2023-06-17T16:17:36.614Z,99965.67
2023-06-17T16:20:05.531Z,99956.95
2023-06-17T16:22:33.973Z,99953.85
2023-06-17T16:25:03.025Z,99953.36
2023-06-17T16:27:36.578Z,99951.56
2023-06-17T16:30:05.255Z,99952.88
2023-06-17T16:32:33.878Z,99950.93
2023-06-17T16:35:02.276Z,99951.52
2023-06-17T16:37:30.575Z,99946.81
2023-06-17T16:39:59.239Z,99942.48
2023-06-17T16:42:27.985Z,99939.56
2023-06-17T16:44:56.265Z,99943.08
2023-06-17T16:47:24.658Z,99946.17
2023-06-17T16:49:53.217Z,99947.45
2023-06-17T16:52:21.556Z,99955.52
2023-06-17T16:55:00.961Z,99955.64
2023-06-17T16:57:35.936Z,99962.83
2023-06-17T17:00:06.388Z,99968.23
2023-06-17T17:03:06.427Z,99967.77
2023-06-17T17:05:58.053Z,99974.01
2023-06-17T17:08:41.939Z,99974.66
2023-06-17T17:11:10.615Z,99978.20
2023-06-17T17:13:48.545Z,99982.66
2023-06-17T17:16:19.220Z,99983.35
2023-06-17T17:18:47.769Z,99986.56
2023-06-17T17:21:16.268Z,99987.18
2023-06-17T17:23:45.725Z,99984.81
2023-06-17T17:26:14.107Z,99990.13
2023-06-17T17:28:43.036Z,99992.06
2023-06-17T17:31:11.482Z,99997.90
2023-06-17T17:33:40.281Z,99993.51
2023-06-17T17:36:08.784Z,99995.00
2023-06-17T17:38:37.618Z,99996.83
2023-06-17T17:41:06.015Z,99996.80
2023-06-17T17:43:34.322Z,99993.60
2023-06-17T17:46:05.191Z,99992.68
2023-06-17T17:48:33.524Z,99991.23
2023-06-17T17:51:01.964Z,99990.33
2023-06-17T17:53:30.629Z,99993.20
2023-06-17T17:55:59.044Z,100000.46
2023-06-17T17:58:35.092Z,100004.14
2023-06-17T18:01:06.915Z,100003.69
2023-06-17T18:03:41.347Z,100005.12
2023-06-17T18:06:09.994Z,100003.02
2023-06-17T18:08:38.699Z,100006.80
2023-06-17T18:11:07.112Z,100009.97
2023-06-17T18:13:35.795Z,100008.55
2023-06-17T18:16:04.608Z,100010.66
2023-06-17T18:18:33.117Z,100004.77
2023-06-17T18:21:01.609Z,100001.52
2023-06-17T18:23:29.882Z,100005.51
2023-06-17T18:25:58.277Z,100004.86
2023-06-17T18:28:26.708Z,100009.54
2023-06-17T18:30:55.099Z,100008.77
2023-06-17T18:33:23.585Z,100008.55
2023-06-17T18:35:52.132Z,100006.58
2023-06-17T18:38:20.823Z,100011.88
2023-06-17T18:40:50.704Z,100017.51
2023-06-17T18:43:26.379Z,100012.66
2023-06-17T18:45:55.285Z,100015.88
2023-06-17T18:48:24.451Z,100016.61
2023-06-17T18:50:54.237Z,100016.18
2023-06-17T18:53:25.381Z,100015.33
2023-06-17T18:55:58.483Z,100008.96
2023-06-17T18:58:27.340Z,100013.13
2023-06-17T19:00:56.305Z,100024.66
2023-06-17T19:06:45.471Z,100039.54
2023-06-17T19:09:16.323Z,100037.41
2023-06-17T19:11:46.618Z,100034.36
2023-06-17T19:14:15.540Z,100036.94
2023-06-17T19:16:45.204Z,100033.97
2023-06-17T19:19:14.446Z,100037.88
2023-06-17T19:21:43.129Z,100035.20
2023-06-17T19:24:11.539Z,100033.71
2023-06-17T19:26:39.976Z,100035.05
2023-06-17T19:29:08.457Z,100035.77
2023-06-17T19:31:36.844Z,100039.86
2023-06-17T19:34:05.213Z,100042.88
2023-06-17T19:36:33.546Z,100048.79
2023-06-17T19:39:01.898Z,100048.14
2023-06-17T19:41:30.822Z,100048.80
2023-06-17T19:44:09.745Z,100050.81
2023-06-17T19:47:31.677Z,100056.92
2023-06-17T19:51:27.348Z,100063.76
2023-06-17T19:55:06.811Z,100069.09
2023-06-17T19:58:56.073Z,100067.84
2023-06-17T20:03:13.843Z,100062.99
2023-06-17T20:06:34.566Z,100062.33
2023-06-17T20:09:02.935Z,100063.47
2023-06-17T20:11:32.853Z,100070.45
2023-06-17T20:14:02.249Z,100071.46
2023-06-17T20:16:31.597Z,100074.23
2023-06-17T20:19:02.613Z,100069.42
2023-06-17T20:21:33.549Z,100067.02
2023-06-17T20:24:01.854Z,100066.32
2023-06-17T20:26:30.240Z,100072.74
2023-06-17T20:28:58.652Z,100078.20
2023-06-17T20:31:28.232Z,100077.83
2023-06-17T20:34:00.349Z,100084.73
2023-06-17T20:36:29.645Z,100088.66
2023-06-17T20:38:58.257Z,100090.21
2023-06-17T20:41:27.900Z,100086.46
2023-06-17T20:43:56.353Z,100079.86
2023-06-17T20:46:24.685Z,100078.25
2023-06-17T20:48:53.169Z,100082.09
2023-06-17T20:51:25.723Z,100079.03
2023-06-17T20:53:54.154Z,100083.39
2023-06-17T20:56:25.448Z,100084.73
2023-06-17T20:58:55.239Z,100090.07
2023-06-17T21:01:23.469Z,100086.86
2023-06-17T21:04:09.692Z,100085.31
2023-06-17T21:06:39.084Z,100083.92
2023-06-17T21:09:07.557Z,100080.14
2023-06-17T21:11:36.269Z,100076.75
2023-06-17T21:14:04.662Z,100077.23
2023-06-17T21:16:33.698Z,100074.28
2023-06-17T21:19:03.146Z,100076.83
2023-06-17T21:21:31.510Z,100081.36
2023-06-17T21:23:59.872Z,100079.67
2023-06-17T21:26:28.333Z,100083.45
2023-06-17T21:28:57.129Z,100085.69
2023-06-17T21:31:25.675Z,100084.20
2023-06-17T21:33:54.523Z,100081.80
2023-06-17T21:36:23.034Z,100083.24
2023-06-17T21:38:51.336Z,100089.13
2023-06-17T21:41:19.632Z,100089.76
2023-06-17T21:43:48.054Z,100099.36
2023-06-17T21:46:16.437Z,100095.27
2023-06-17T21:48:44.928Z,100099.91
2023-06-17T21:51:13.362Z,100103.09
2023-06-17T21:53:41.666Z,100101.67
2023-06-17T21:56:10.076Z,100103.08
2023-06-17T21:58:38.717Z,100101.99
2023-06-17T22:01:07.249Z,100098.63
2023-06-17T22:03:35.664Z,100097.73
2023-06-17T22:06:04.223Z,100097.73
2023-06-17T22:08:42.198Z,100101.27
2023-06-17T22:11:12.898Z,100100.23
2023-06-17T22:13:41.415Z,100105.53
2023-06-17T22:16:09.859Z,100101.15
2023-06-17T22:18:38.280Z,100098.40
2023-06-17T22:21:07.391Z,100099.85
2023-06-17T22:23:35.757Z,100100.98
2023-06-17T22:26:04.141Z,100092.73
2023-06-17T22:28:32.544Z,100095.38
2023-06-17T22:31:00.846Z,100094.55
2023-06-17T22:33:29.671Z,100096.40
2023-06-17T22:35:58.020Z,100098.08
2023-06-17T22:38:26.338Z,100094.15
2023-06-17T22:40:54.727Z,100096.20
2023-06-17T22:43:23.003Z,100093.25
2023-06-17T22:45:51.304Z,100095.40
2023-06-17T22:48:19.729Z,100094.10
2023-06-17T22:50:48.072Z,100097.66
2023-06-17T22:53:16.448Z,100102.50
2023-06-17T22:55:44.883Z,100105.24
2023-06-17T22:58:13.208Z,100098.64
2023-06-17T23:00:41.612Z,100097.27
2023-06-17T23:03:10.112Z,100093.07
2023-06-17T23:05:39.107Z,100089.21
2023-06-17T23:08:07.426Z,100092.08
2023-06-17T23:10:37.138Z,100097.61
2023-06-17T23:13:05.648Z,100095.73
2023-06-17T23:15:34.213Z,100100.71
2023-06-17T23:18:02.615Z,100100.02
2023-06-17T23:20:30.892Z,100103.34
2023-06-17T23:22:59.269Z,100100.35
2023-06-17T23:25:27.932Z,100100.94
2023-06-17T23:27:58.414Z,100099.98
2023-06-17T23:30:26.739Z,100098.67
2023-06-17T23:32:55.421Z,100100.50
2023-06-17T23:35:23.722Z,100097.91
2023-06-17T23:37:52.109Z,100095.11
2023-06-17T23:40:20.818Z,100096.14
2023-06-17T23:42:49.334Z,100088.60
2023-06-17T23:45:17.720Z,100083.00
2023-06-17T23:47:46.248Z,100082.34
2023-06-17T23:50:14.609Z,100081.83
2023-06-17T23:52:42.956Z,100071.77
2023-06-17T23:55:11.575Z,100071.58
2023-06-17T23:57:40.014Z,100071.20
